Time;durP1;ratioP1;P1;durP2;ratioP2;P2;SDS_P1;SDS_P2;PMS_P1;PMS_P2;Temp;Humidity;BMP_temperature;BMP_pressure;BME280_temperature;BME280_humidity;BME280_pressure;Samples;Min_cycle;Max_cycle;Signal;HPM_P1;HPM_P2
2023/12/17 00:00:00;;;;;;;;;22.25;18.75;;;;;-143.90;100.00;77509.06;4909412;28;102409;-71
2023/12/17 00:02:26;;;;;;;;;23.00;20.00;;;;;-143.90;100.00;77500.78;4912314;28;102572;-71
2023/12/17 00:04:53;;;;;;;;;16.75;13.25;;;;;-143.90;100.00;77500.78;4903500;28;104079;-71
2023/12/17 00:07:20;;;;;;;;;27.75;24.00;;;;;-143.90;100.00;77496.66;4906894;28;103553;-73
2023/12/17 00:09:46;;;;;;;;;31.50;25.25;;;;;-143.90;100.00;77484.25;4905329;28;102646;-72
2023/12/17 00:12:13;;;;;;;;;29.50;23.25;;;;;-143.90;100.00;77465.63;4899505;28;102322;-73
2023/12/17 00:14:41;;;;;;;;;24.50;22.75;;;;;-143.90;100.00;77480.09;4910248;28;104124;-72
2023/12/17 00:17:08;;;;;;;;;22.50;15.00;;;;;-143.90;100.00;77467.69;4905718;28;102082;-71
2023/12/17 00:19:35;;;;;;;;;30.50;24.75;;;;;-143.90;100.00;77471.81;4906862;28;102028;-71
2023/12/17 00:22:02;;;;;;;;;26.50;22.75;;;;;-143.90;100.00;77463.56;4912598;28;102396;-72
2023/12/17 00:24:28;;;;;;;;;28.75;24.25;;;;;-143.90;100.00;77463.56;4938182;28;104057;-72
2023/12/17 00:26:57;;;;;;;;;27.50;23.25;;;;;-143.90;100.00;77453.22;4946865;28;102616;-72
2023/12/17 00:29:24;;;;;;;;;26.75;18.75;;;;;-143.90;100.00;77453.22;4949871;28;101831;-72
2023/12/17 00:31:50;;;;;;;;;26.50;21.50;;;;;-143.90;100.00;77451.13;4953095;28;101994;-72
2023/12/17 00:34:25;;;;;;;;;23.75;21.00;;;;;-143.90;100.00;77453.22;4951138;28;108319;-70
2023/12/17 00:36:52;;;;;;;;;24.50;21.75;;;;;-143.90;100.00;77447.00;4952766;28;102309;-72
2023/12/17 00:39:19;;;;;;;;;32.75;24.75;;;;;-143.90;100.00;77449.06;4949343;28;102045;-72
2023/12/17 00:41:45;;;;;;;;;26.50;21.00;;;;;-143.90;100.00;77453.22;4951342;28;102654;-72
2023/12/17 00:44:12;;;;;;;;;23.75;20.25;;;;;-143.90;100.00;77453.22;4945671;28;104172;-73
2023/12/17 00:46:38;;;;;;;;;25.50;20.00;;;;;-143.90;100.00;77447.00;4948369;28;101911;-72
2023/12/17 00:49:05;;;;;;;;;22.50;20.50;;;;;-143.90;100.00;77447.00;4950365;28;101964;-74
2023/12/17 00:51:32;;;;;;;;;25.50;20.25;;;;;-143.90;100.00;77424.25;4948059;28;102035;-72
2023/12/17 00:53:59;;;;;;;;;27.75;21.00;;;;;-143.90;100.00;77424.25;4950210;28;104014;-72
2023/12/17 00:56:25;;;;;;;;;27.50;23.00;;;;;-143.90;100.00;77415.97;4956908;28;102146;-72
2023/12/17 00:58:52;;;;;;;;;23.25;19.75;;;;;-143.90;100.00;77418.03;4950555;28;102225;-72
2023/12/17 01:01:18;;;;;;;;;27.25;23.50;;;;;-143.90;100.00;77409.78;4948844;28;102002;-71
2023/12/17 01:03:45;;;;;;;;;26.50;23.75;;;;;-143.90;100.00;77411.84;4942051;28;104161;-71
2023/12/17 01:06:12;;;;;;;;;23.75;20.75;;;;;-143.90;100.00;77420.13;4948648;28;102070;-71
2023/12/17 01:08:39;;;;;;;;;25.50;20.50;;;;;-143.90;100.00;77422.19;4945774;28;102313;-71
2023/12/17 01:11:05;;;;;;;;;28.75;23.25;;;;;-143.90;100.00;77420.13;4949251;28;102209;-71
2023/12/17 01:13:32;;;;;;;;;28.25;23.00;;;;;-143.90;100.00;77422.19;4954244;28;104101;-72
2023/12/17 01:16:01;;;;;;;;;18.75;16.00;;;;;-143.90;100.00;77418.03;4943262;28;102285;-72
2023/12/17 01:18:28;;;;;;;;;27.25;23.00;;;;;-143.90;100.00;77409.78;4951669;28;102417;-72
2023/12/17 01:20:55;;;;;;;;;27.50;21.50;;;;;-143.90;100.00;77407.69;4946371;28;102626;-71
2023/12/17 01:23:21;;;;;;;;;24.50;20.00;;;;;-143.90;100.00;77403.56;4948725;28;104192;-72
2023/12/17 01:25:48;;;;;;;;;22.25;19.25;;;;;-143.90;100.00;77397.34;4944898;28;102319;-73
2023/12/17 01:28:14;;;;;;;;;22.25;19.00;;;;;-143.90;100.00;77405.63;4946441;28;102645;-73
2023/12/17 01:30:41;;;;;;;;;24.00;22.25;;;;;-143.90;100.00;77407.69;4955534;28;102302;-72
2023/12/17 01:33:11;;;;;;;;;25.00;21.25;;;;;-143.90;100.00;77401.50;4948277;28;103915;-71
2023/12/17 01:35:38;;;;;;;;;27.50;24.25;;;;;-143.90;100.00;77405.63;4949433;28;101950;-72
2023/12/17 01:38:04;;;;;;;;;25.75;21.25;;;;;-143.90;100.00;77405.63;4950335;28;107704;-71
2023/12/17 01:40:31;;;;;;;;;24.50;21.00;;;;;-143.90;100.00;77401.50;4954625;28;102317;-71
2023/12/17 01:42:58;;;;;;;;;32.25;23.50;;;;;-143.90;100.00;77397.34;4951751;28;104085;-71
2023/12/17 01:45:24;;;;;;;;;25.00;20.25;;;;;-143.90;100.00;77397.34;4946028;28;102447;-72
2023/12/17 01:47:51;;;;;;;;;28.00;23.25;;;;;-143.90;100.00;77397.34;4949152;28;101941;-71
2023/12/17 01:50:18;;;;;;;;;23.75;19.50;;;;;-143.90;100.00;77397.34;4944865;28;102510;-71
2023/12/17 01:52:45;;;;;;;;;21.00;16.50;;;;;-143.90;100.00;77401.50;4947871;28;105087;-70
2023/12/17 01:55:11;;;;;;;;;25.75;21.00;;;;;-143.90;100.00;77395.28;4947713;28;102941;-71
2023/12/17 01:57:39;;;;;;;;;18.00;17.00;;;;;-143.90;100.00;77403.56;4948034;28;103599;-71
2023/12/17 02:00:07;;;;;;;;;24.50;17.50;;;;;-143.90;100.00;77399.44;4945826;28;102976;-73
2023/12/17 02:02:34;;;;;;;;;22.75;19.75;;;;;-143.90;100.00;77397.34;4946454;28;104113;-73
2023/12/17 02:05:02;;;;;;;;;25.25;21.75;;;;;-143.90;100.00;77395.28;4945629;28;102176;-72
2023/12/17 02:07:29;;;;;;;;;29.00;23.50;;;;;-143.90;100.00;77399.44;4947656;28;101943;-73
2023/12/17 02:09:55;;;;;;;;;26.25;23.00;;;;;-143.90;100.00;77401.50;4949017;28;102110;-72
2023/12/17 02:12:26;;;;;;;;;25.75;22.25;;;;;-143.90;100.00;77403.56;4949237;28;103957;-72
2023/12/17 02:14:53;;;;;;;;;29.75;24.25;;;;;-143.90;100.00;77403.56;4947113;28;102007;-72
2023/12/17 02:17:27;;;;;;;;;26.00;21.80;;;;;-143.90;100.00;77407.69;2130914;28;10103771;-72
2023/12/17 02:19:54;;;;;;;;;29.25;25.00;;;;;-143.90;100.00;77409.78;4956038;28;102212;-72
2023/12/17 02:22:25;;;;;;;;;22.75;20.75;;;;;-143.90;100.00;77409.78;4944724;28;104209;-72
2023/12/17 02:24:52;;;;;;;;;29.25;24.00;;;;;-143.90;100.00;77401.50;4958562;28;102005;-72
2023/12/17 02:27:23;;;;;;;;;30.00;24.50;;;;;-143.90;100.00;77395.28;4943785;28;102110;-71
2023/12/17 02:29:51;;;;;;;;;31.00;25.50;;;;;-143.90;100.00;77397.34;4953324;28;105709;-72
2023/12/17 02:32:20;;;;;;;;;33.00;23.75;;;;;-143.90;100.00;77395.28;4941556;28;104115;-72
2023/12/17 02:34:47;;;;;;;;;30.25;25.00;;;;;-143.90;100.00;77401.50;4948984;28;102198;-72
2023/12/17 02:37:15;;;;;;;;;29.25;21.75;;;;;-143.90;100.00;77393.22;4948354;28;102183;-72
2023/12/17 02:39:42;;;;;;;;;26.00;21.50;;;;;-143.90;100.00;77403.56;4946696;28;103127;-72
2023/12/17 02:42:08;;;;;;;;;23.75;22.00;;;;;-143.90;100.00;77403.56;4949934;28;104124;-72
2023/12/17 02:44:35;;;;;;;;;27.75;20.00;;;;;-143.90;100.00;77397.34;4947046;28;104031;-72
2023/12/17 02:47:02;;;;;;;;;22.25;19.75;;;;;-143.90;100.00;77395.28;4944932;28;103823;-72
2023/12/17 02:49:29;;;;;;;;;18.75;16.00;;;;;-143.90;100.00;77399.44;4946893;28;101927;-72
2023/12/17 02:51:55;;;;;;;;;24.75;23.00;;;;;-143.90;100.00;77405.63;4948845;28;104249;-72
2023/12/17 02:54:25;;;;;;;;;26.00;20.75;;;;;-143.90;100.00;77422.19;4947959;28;102793;-72
2023/12/17 02:56:52;;;;;;;;;19.75;18.75;;;;;-143.90;100.00;77422.19;4961007;28;102500;-72
2023/12/17 02:59:18;;;;;;;;;27.25;20.25;;;;;-143.90;100.00;77432.53;4948472;28;102001;-72
2023/12/17 03:01:45;;;;;;;;;20.75;17.25;;;;;-143.90;100.00;77430.47;4945653;28;104074;-72
2023/12/17 03:04:13;;;;;;;;;21.50;19.00;;;;;-143.90;100.00;77430.47;4947689;28;102793;-72
2023/12/17 03:06:40;;;;;;;;;21.00;19.75;;;;;-143.90;100.00;77438.72;4946946;28;102215;-72
2023/12/17 03:09:06;;;;;;;;;20.25;17.00;;;;;-143.90;100.00;77442.88;4950091;28;101958;-72
2023/12/17 03:11:33;;;;;;;;;23.50;19.50;;;;;-143.90;100.00;77449.06;4948006;28;104180;-71
2023/12/17 03:14:00;;;;;;;;;20.00;16.00;;;;;-143.90;100.00;77459.41;4944328;28;102067;-70
2023/12/17 03:16:27;;;;;;;;;21.00;18.25;;;;;-143.90;100.00;77457.34;4947545;28;102191;-72
2023/12/17 03:18:54;;;;;;;;;17.50;15.00;;;;;-143.90;100.00;77463.56;4946756;28;102490;-71
2023/12/17 03:21:28;;;;;;;;;15.75;14.75;;;;;-143.90;100.00;77463.56;4943836;28;104253;-71
2023/12/17 03:23:54;;;;;;;;;19.50;16.50;;;;;-143.90;100.00;77469.75;4943373;28;102266;-71
2023/12/17 03:26:21;;;;;;;;;26.00;19.00;;;;;-143.90;100.00;77469.75;4942484;28;101955;-71
2023/12/17 03:28:48;;;;;;;;;20.75;18.75;;;;;-143.90;100.00;77484.25;4943993;28;102372;-72
2023/12/17 03:31:16;;;;;;;;;24.00;20.00;;;;;-143.90;100.00;77500.78;4945104;28;104377;-72
2023/12/17 03:33:44;;;;;;;;;22.50;20.50;;;;;-143.90;100.00;77500.78;4942390;28;102606;-72
2023/12/17 03:36:15;;;;;;;;;19.25;17.50;;;;;-143.90;100.00;77484.25;4946898;28;102101;-72
2023/12/17 03:38:44;;;;;;;;;21.00;16.50;;;;;-143.90;100.00;77488.38;4954975;28;102495;-72
2023/12/17 03:41:24;;;;;;;;;26.75;20.00;;;;;-143.90;100.00;77486.31;4948535;28;104464;-72
2023/12/17 03:43:53;;;;;;;;;31.00;25.75;;;;;-143.90;100.00;77482.16;4947301;28;102454;-73
2023/12/17 03:46:20;;;;;;;;;24.75;22.50;;;;;-143.90;100.00;77484.25;4944177;28;102075;-73
2023/12/17 03:48:47;;;;;;;;;22.00;20.25;;;;;-143.90;100.00;77482.16;4946920;28;102646;-71
2023/12/17 03:51:15;;;;;;;;;30.75;21.50;;;;;-143.90;100.00;77484.25;4940685;28;103762;-73
2023/12/17 03:53:42;;;;;;;;;24.25;22.25;;;;;-143.90;100.00;77484.25;4946111;28;102318;-72
2023/12/17 03:56:10;;;;;;;;;22.25;20.25;;;;;-143.90;100.00;77492.50;4947452;28;102295;-71
2023/12/17 03:58:37;;;;;;;;;18.50;14.25;;;;;-143.90;100.00;77475.97;4949739;28;102205;-70
2023/12/17 04:01:05;;;;;;;;;24.75;19.75;;;;;-143.90;100.00;77480.09;4948239;28;104177;-71
2023/12/17 04:03:32;;;;;;;;;20.75;20.50;;;;;-143.90;100.00;77473.91;4950790;28;102410;-72
2023/12/17 04:06:01;;;;;;;;;24.25;18.50;;;;;-143.90;100.00;77471.81;4953698;28;102067;-71
2023/12/17 04:08:27;;;;;;;;;22.75;20.75;;;;;-143.90;100.00;77490.44;4949938;28;102509;-71
2023/12/17 04:10:54;;;;;;;;;18.25;16.50;;;;;-143.90;100.00;77498.72;4947125;28;104123;-72
2023/12/17 04:13:21;;;;;;;;;24.00;17.50;;;;;-143.90;100.00;77498.72;4947138;28;102427;-72
2023/12/17 04:15:47;;;;;;;;;20.75;18.50;;;;;-143.90;100.00;77498.72;4947096;28;103894;-72
2023/12/17 04:18:14;;;;;;;;;27.25;21.75;;;;;-143.90;100.00;77492.50;4950989;28;102307;-72
2023/12/17 04:20:41;;;;;;;;;20.00;19.25;;;;;-143.90;100.00;77502.84;4950860;28;104188;-72
2023/12/17 04:23:08;;;;;;;;;22.50;19.00;;;;;-143.90;100.00;77496.66;4946360;28;102006;-72
2023/12/17 04:25:34;;;;;;;;;23.50;18.00;;;;;-143.90;100.00;77492.50;4947767;28;102251;-72
2023/12/17 04:28:01;;;;;;;;;17.25;15.00;;;;;-143.90;100.00;77496.66;4947576;28;102344;-70
2023/12/17 04:30:28;;;;;;;;;21.50;18.50;;;;;-143.90;100.00;77492.50;4954210;28;109097;-71
2023/12/17 04:32:54;;;;;;;;;18.00;14.75;;;;;-143.90;100.00;77504.94;4944681;28;102595;-72
2023/12/17 04:35:21;;;;;;;;;21.25;17.50;;;;;-143.90;100.00;77507.00;4941667;28;103868;-72
2023/12/17 04:37:48;;;;;;;;;18.50;18.00;;;;;-143.90;100.00;77500.78;4944710;28;102514;-73
2023/12/17 04:40:15;;;;;;;;;17.00;14.75;;;;;-143.90;100.00;77492.50;4948665;28;103980;-73
2023/12/17 04:42:41;;;;;;;;;23.50;18.75;;;;;-143.90;100.00;77490.44;4949776;28;102229;-72
2023/12/17 04:45:08;;;;;;;;;21.25;17.00;;;;;-143.90;100.00;77513.19;4954196;28;102061;-72
2023/12/17 04:47:35;;;;;;;;;18.25;17.25;;;;;-143.90;100.00;77504.94;4951931;28;102061;-72
2023/12/17 04:50:02;;;;;;;;;23.50;15.00;;;;;-143.90;100.00;77507.00;4949058;28;104227;-72
2023/12/17 04:52:28;;;;;;;;;21.75;17.75;;;;;-143.90;100.00;77504.94;4946862;28;102132;-72
2023/12/17 04:54:56;;;;;;;;;23.00;17.25;;;;;-143.90;100.00;77507.00;4952040;28;102791;-73
2023/12/17 04:57:22;;;;;;;;;17.75;17.25;;;;;-143.90;100.00;77504.94;4947751;28;102494;-71
2023/12/17 04:59:49;;;;;;;;;20.25;15.75;;;;;-143.90;100.00;77500.78;4950868;28;103135;-71
2023/12/17 05:02:15;;;;;;;;;22.00;19.00;;;;;-143.90;100.00;77513.19;4949151;28;102064;-71
2023/12/17 05:04:42;;;;;;;;;22.00;18.00;;;;;-143.90;100.00;77513.19;4945956;28;101891;-72
2023/12/17 05:07:09;;;;;;;;;22.25;14.25;;;;;-143.90;100.00;77509.06;4948902;28;102155;-72
2023/12/17 05:09:35;;;;;;;;;19.00;15.50;;;;;-143.90;100.00;77507.00;4948945;28;103899;-72
2023/12/17 05:12:02;;;;;;;;;16.00;14.00;;;;;-143.90;100.00;77492.50;4951094;28;102096;-72
2023/12/17 05:14:29;;;;;;;;;18.00;14.00;;;;;-143.90;100.00;77496.66;4947343;28;102217;-71
2023/12/17 05:16:56;;;;;;;;;20.75;20.50;;;;;-143.90;100.00;77496.66;4945957;28;101905;-71
2023/12/17 05:19:22;;;;;;;;;20.50;17.50;;;;;-143.90;100.00;77502.84;4951333;28;104115;-71
2023/12/17 05:21:49;;;;;;;;;16.50;14.00;;;;;-143.90;100.00;77500.78;4941627;28;103103;-71
2023/12/17 05:24:16;;;;;;;;;23.25;20.75;;;;;-143.90;100.00;77509.06;4948311;28;103071;-71
2023/12/17 05:26:42;;;;;;;;;24.00;18.25;;;;;-143.90;100.00;77509.06;4950168;28;102056;-72
2023/12/17 05:29:09;;;;;;;;;22.75;17.50;;;;;-143.90;100.00;77502.84;4943701;28;103972;-72
2023/12/17 05:31:36;;;;;;;;;40.00;26.25;;;;;-143.90;100.00;77500.78;4953257;28;102200;-72
2023/12/17 05:34:02;;;;;;;;;30.50;23.50;;;;;-143.90;100.00;77504.94;4940837;28;102644;-72
2023/12/17 05:36:29;;;;;;;;;30.75;22.50;;;;;-143.90;100.00;77498.72;4943239;28;102072;-72
2023/12/17 05:38:56;;;;;;;;;23.75;18.00;;;;;-143.90;100.00;77509.06;4942674;28;104000;-72
2023/12/17 05:41:22;;;;;;;;;19.00;16.50;;;;;-143.90;100.00;77498.72;4944612;28;102551;-72
2023/12/17 05:43:49;;;;;;;;;23.25;18.00;;;;;-143.90;100.00;77504.94;4929361;28;102296;-73
2023/12/17 05:46:16;;;;;;;;;24.00;20.50;;;;;-143.90;100.00;77490.44;4949748;28;102801;-72
2023/12/17 05:48:42;;;;;;;;;18.00;15.00;;;;;-143.90;100.00;77484.25;4947875;28;104114;-71
2023/12/17 05:51:09;;;;;;;;;23.50;18.00;;;;;-143.90;100.00;77484.25;4950087;28;102331;-71
2023/12/17 05:53:36;;;;;;;;;24.50;18.25;;;;;-143.90;100.00;77488.38;4950351;28;103572;-72
2023/12/17 05:56:12;;;;;;;;;24.00;18.50;;;;;-143.90;100.00;77504.94;4947178;28;102359;-72
2023/12/17 05:58:39;;;;;;;;;18.75;17.75;;;;;-143.90;100.00;77502.84;4950107;28;103756;-72
2023/12/17 06:01:05;;;;;;;;;24.25;18.50;;;;;-143.90;100.00;77500.78;4951949;28;102016;-73
2023/12/17 06:03:34;;;;;;;;;19.00;16.25;;;;;-143.90;100.00;77504.94;4946195;28;102283;-71
2023/12/17 06:06:01;;;;;;;;;19.50;16.00;;;;;-143.90;100.00;77509.06;4948274;28;102506;-72
2023/12/17 06:08:27;;;;;;;;;14.50;11.00;;;;;-143.90;100.00;77504.94;4944391;28;103668;-72
2023/12/17 06:10:54;;;;;;;;;15.25;14.75;;;;;-143.90;100.00;77504.94;4950474;28;102540;-72
2023/12/17 06:13:21;;;;;;;;;13.75;11.00;;;;;-143.90;100.00;77507.00;4945288;28;102343;-73
2023/12/17 06:15:47;;;;;;;;;17.50;16.75;;;;;-143.90;100.00;77504.94;4946385;28;102509;-72
2023/12/17 06:18:16;;;;;;;;;15.25;14.25;;;;;-143.90;100.00;77500.78;4942334;28;104044;-73
2023/12/17 06:20:44;;;;;;;;;19.00;15.25;;;;;-143.90;100.00;77504.94;4934184;28;103482;-71
2023/12/17 06:23:11;;;;;;;;;15.50;15.00;;;;;-143.90;100.00;77504.94;4944206;28;102178;-72
2023/12/17 06:25:38;;;;;;;;;13.50;7.75;;;;;-143.90;100.00;77492.50;4950709;28;102351;-72
2023/12/17 06:28:04;;;;;;;;;19.25;15.75;;;;;-143.90;100.00;77498.72;4944308;28;109877;-73
2023/12/17 06:30:32;;;;;;;;;20.00;18.50;;;;;-143.90;100.00;77496.66;4947217;28;102081;-72
2023/12/17 06:32:59;;;;;;;;;19.25;16.50;;;;;-143.90;100.00;77492.50;4947477;28;101994;-72
2023/12/17 06:35:26;;;;;;;;;24.50;18.25;;;;;-143.90;100.00;77490.44;4946603;28;103614;-71
2023/12/17 06:37:53;;;;;;;;;24.50;19.00;;;;;-143.90;100.00;77488.38;4942999;28;106162;-72
2023/12/17 06:40:20;;;;;;;;;25.75;20.75;;;;;-143.90;100.00;77492.50;4948276;28;102456;-72
2023/12/17 06:42:46;;;;;;;;;32.00;21.75;;;;;-143.90;100.00;77496.66;4930909;28;103319;-71
2023/12/17 06:45:13;;;;;;;;;24.00;17.50;;;;;-143.90;100.00;77496.66;4945572;28;102091;-73
2023/12/17 06:47:40;;;;;;;;;20.25;16.50;;;;;-143.90;100.00;77500.78;4949103;28;104923;-73
2023/12/17 06:50:10;;;;;;;;;18.25;15.00;;;;;-143.90;100.00;77496.66;4944014;28;102499;-73
2023/12/17 06:52:36;;;;;;;;;22.00;18.50;;;;;-143.90;100.00;77490.44;4944745;28;101977;-73
2023/12/17 06:55:04;;;;;;;;;22.00;18.75;;;;;-143.90;100.00;77496.66;4952201;28;102386;-73
2023/12/17 06:57:31;;;;;;;;;18.50;15.00;;;;;-143.90;100.00;77488.38;4946240;28;104194;-72
2023/12/17 06:59:57;;;;;;;;;19.50;16.00;;;;;-143.90;100.00;77492.50;4940026;28;102726;-72
2023/12/17 07:02:24;;;;;;;;;19.25;15.00;;;;;-143.90;100.00;77496.66;4948826;28;102509;-72
2023/12/17 07:04:51;;;;;;;;;21.75;17.75;;;;;-143.90;100.00;77492.50;4945517;28;102323;-72
2023/12/17 07:07:17;;;;;;;;;18.00;15.50;;;;;-143.90;100.00;77484.25;4946469;28;104295;-72
2023/12/17 07:09:44;;;;;;;;;18.00;16.50;;;;;-143.90;100.00;77480.09;4945286;28;102311;-72
2023/12/17 07:12:11;;;;;;;;;20.50;18.00;;;;;-143.90;100.00;77482.16;4945272;28;101820;-73
2023/12/17 07:14:37;;;;;;;;;17.25;13.25;;;;;-143.90;100.00;77475.97;4951281;28;102560;-72
2023/12/17 07:17:04;;;;;;;;;19.50;17.50;;;;;-143.90;100.00;77486.31;4947935;28;108940;-72
2023/12/17 07:19:31;;;;;;;;;14.00;11.00;;;;;-143.90;100.00;77473.91;4945648;28;103303;-73
2023/12/17 07:21:58;;;;;;;;;24.50;19.00;;;;;-143.90;100.00;77475.97;4945181;28;102266;-72
2023/12/17 07:24:25;;;;;;;;;20.25;18.50;;;;;-143.90;100.00;77482.16;4948480;28;102435;-72
2023/12/17 07:26:52;;;;;;;;;26.25;20.50;;;;;-143.90;100.00;77478.03;4944100;28;104145;-72
2023/12/17 07:29:22;;;;;;;;;29.25;21.00;;;;;-143.90;100.00;77480.09;4950157;28;102511;-72
2023/12/17 07:31:49;;;;;;;;;18.75;18.75;;;;;-143.90;100.00;77475.97;4946525;28;102244;-72
2023/12/17 07:34:16;;;;;;;;;24.00;19.50;;;;;-143.90;100.00;77467.69;4944476;28;102062;-72
2023/12/17 07:36:47;;;;;;;;;29.50;23.25;;;;;-143.90;100.00;77480.09;4944032;28;103946;-71
2023/12/17 07:39:13;;;;;;;;;20.50;17.50;;;;;-143.90;100.00;77475.97;4945490;28;102436;-72
2023/12/17 07:41:40;;;;;;;;;19.00;18.25;;;;;-143.90;100.00;77478.03;4944363;28;101819;-74
2023/12/17 07:44:07;;;;;;;;;20.75;18.50;;;;;-143.90;100.00;77471.81;4947763;28;102033;-72
2023/12/17 07:46:33;;;;;;;;;21.50;18.50;;;;;-143.90;100.00;77473.91;4943726;28;104017;-72
2023/12/17 07:49:00;;;;;;;;;28.00;23.50;;;;;-143.90;100.00;77473.91;4945803;28;102126;-72
2023/12/17 07:51:27;;;;;;;;;21.75;18.00;;;;;-143.90;100.00;77465.63;4941061;28;102857;-72
2023/12/17 07:53:54;;;;;;;;;25.00;22.50;;;;;-143.90;100.00;77469.75;4944473;28;102310;-73
2023/12/17 07:56:20;;;;;;;;;23.00;21.00;;;;;-143.90;100.00;77453.22;4938923;28;104159;-73
2023/12/17 07:58:48;;;;;;;;;20.75;18.50;;;;;-143.90;100.00;77442.88;4947085;28;103939;-73
2023/12/17 08:01:14;;;;;;;;;20.75;18.50;;;;;-143.90;100.00;77426.31;4945443;28;101974;-74
2023/12/17 08:03:45;;;;;;;;;28.25;22.00;;;;;-143.90;100.00;77424.25;4948741;28;101789;-74
2023/12/17 08:06:12;;;;;;;;;24.50;21.00;;;;;-143.90;100.00;77426.31;4950171;28;104151;-73
2023/12/17 08:08:38;;;;;;;;;20.50;16.75;;;;;-143.90;100.00;77420.13;4939461;28;102357;-72
2023/12/17 08:11:11;;;;;;;;;28.25;22.25;;;;;-143.90;100.00;77401.50;4938566;28;102660;-72
2023/12/17 08:13:39;;;;;;;;;21.75;19.00;;;;;-143.90;100.00;77395.28;4947923;28;104559;-72
2023/12/17 08:16:06;;;;;;;;;22.00;19.75;;;;;-143.90;100.00;77405.63;4947958;28;108991;-71
2023/12/17 08:18:32;;;;;;;;;22.75;16.25;;;;;-143.90;100.00;77384.94;4947826;28;102557;-71
2023/12/17 08:20:59;;;;;;;;;26.25;16.00;;;;;-143.90;100.00;77372.53;4924256;28;103515;-71
2023/12/17 08:23:27;;;;;;;;;24.00;20.00;;;;;-143.90;100.00;77372.53;4840571;28;103522;-72
2023/12/17 08:25:54;;;;;;;;;26.25;21.50;;;;;-143.90;100.00;77368.41;4870783;28;105344;-72
2023/12/17 08:28:21;;;;;;;;;36.50;28.50;;;;;-143.90;100.00;77364.25;4883951;28;103545;-72
2023/12/17 08:30:49;;;;;;;;;25.00;21.75;;;;;-143.90;100.00;77358.06;4897617;28;103538;-72
2023/12/17 08:33:16;;;;;;;;;34.50;28.00;;;;;-143.90;100.00;77351.84;4843423;28;103547;-72
2023/12/17 08:35:45;;;;;;;;;30.25;27.00;;;;;-143.90;100.00;77353.91;4851774;28;104000;-71
2023/12/17 08:38:12;;;;;;;;;29.00;26.00;;;;;-143.90;100.00;77351.84;4849819;28;103576;-72
2023/12/17 08:40:40;;;;;;;;;27.75;22.25;;;;;-143.90;100.00;77343.56;4848034;28;103500;-74
2023/12/17 08:43:07;;;;;;;;;32.00;27.50;;;;;-143.90;100.00;77351.84;4868065;28;104123;-71
2023/12/17 08:45:35;;;;;;;;;28.75;25.75;;;;;-143.90;100.00;77347.72;4907485;28;108855;-72
2023/12/17 08:48:02;;;;;;;;;19.25;18.00;;;;;-143.90;100.00;77339.44;4873381;28;104042;-73
2023/12/17 08:50:29;;;;;;;;;16.75;12.50;;;;;-143.90;100.00;77331.16;4855549;28;103909;-73
2023/12/17 08:52:56;;;;;;;;;22.25;18.50;;;;;-143.90;100.00;77329.09;4877116;28;102807;-72
2023/12/17 08:55:23;;;;;;;;;23.50;20.50;;;;;-143.90;100.00;77331.16;4943561;28;104174;-72
2023/12/17 08:57:49;;;;;;;;;17.25;17.00;;;;;-143.90;100.00;77312.56;4938833;28;102625;-72
2023/12/17 09:00:17;;;;;;;;;21.00;16.75;;;;;-143.90;100.00;77310.47;4940463;28;103127;-73
2023/12/17 09:02:44;;;;;;;;;20.75;16.00;;;;;-143.90;100.00;77302.22;4942571;28;102500;-72
2023/12/17 09:05:12;;;;;;;;;20.75;17.25;;;;;-143.90;100.00;77306.34;4932753;28;104072;-71
2023/12/17 09:07:39;;;;;;;;;22.25;18.50;;;;;-143.90;100.00;77296.00;4936416;28;102524;-73
2023/12/17 09:10:07;;;;;;;;;25.25;22.00;;;;;-143.90;100.00;77298.06;4939042;28;103829;-73
2023/12/17 09:12:33;;;;;;;;;23.75;21.75;;;;;-143.90;100.00;77293.94;4953549;28;102680;-72
2023/12/17 09:15:00;;;;;;;;;22.50;18.50;;;;;-143.90;100.00;77283.59;4938067;28;104173;-72
2023/12/17 09:17:27;;;;;;;;;21.75;21.00;;;;;-143.90;100.00;77277.38;4925959;28;102252;-72
2023/12/17 09:19:53;;;;;;;;;12.75;11.50;;;;;-143.90;100.00;77267.03;4943770;28;102666;-72
2023/12/17 09:22:20;;;;;;;;;20.00;16.00;;;;;-143.90;100.00;77267.03;4951313;28;102474;-72
2023/12/17 09:24:47;;;;;;;;;20.25;17.50;;;;;-143.90;100.00;77254.63;4944973;28;104136;-72
2023/12/17 09:27:15;;;;;;;;;22.00;17.00;;;;;-143.90;100.00;77244.28;4948973;28;102064;-72
2023/12/17 09:29:42;;;;;;;;;25.75;18.50;;;;;-143.90;100.00;77233.94;4945872;28;102036;-72
2023/12/17 09:32:09;;;;;;;;;23.75;21.50;;;;;-143.90;100.00;77233.94;4950636;28;106136;-73
2023/12/17 09:34:36;;;;;;;;;23.50;21.00;;;;;-143.90;100.00;77227.75;4947403;28;108627;-72
2023/12/17 09:37:02;;;;;;;;;27.75;23.75;;;;;-143.90;100.00;77225.66;4947587;28;102637;-73
2023/12/17 09:39:29;;;;;;;;;23.00;21.25;;;;;-143.90;100.00;77211.19;4943253;28;102267;-72
2023/12/17 09:41:56;;;;;;;;;29.50;22.25;;;;;-143.90;100.00;77211.19;4948775;28;102308;-72
2023/12/17 09:44:23;;;;;;;;;28.75;23.00;;;;;-143.90;100.00;77198.78;4947916;28;104122;-71
2023/12/17 09:46:49;;;;;;;;;23.25;19.00;;;;;-143.90;100.00;77207.06;4943917;28;102537;-72
2023/12/17 09:49:16;;;;;;;;;35.25;30.75;;;;;-143.90;100.00;77213.25;4949653;28;102041;-72
2023/12/17 09:51:47;;;;;;;;;37.75;29.50;;;;;-143.90;100.00;77194.66;4945857;28;103431;-72
2023/12/17 09:54:13;;;;;;;;;35.75;28.00;;;;;-143.90;100.00;77184.31;4944835;28;104209;-71
2023/12/17 09:56:46;;;;;;;;;24.25;21.25;;;;;-143.90;100.00;77178.09;4947209;28;104404;-72
2023/12/17 09:59:12;;;;;;;;;35.50;30.50;;;;;-143.90;100.00;77188.44;4948496;28;101935;-71
2023/12/17 10:01:39;;;;;;;;;34.75;28.50;;;;;-143.90;100.00;77171.91;4953042;28;103873;-72
2023/12/17 10:04:06;;;;;;;;;26.25;26.00;;;;;-143.90;100.00;77169.81;4948515;28;108732;-72
2023/12/17 10:06:32;;;;;;;;;27.00;21.50;;;;;-143.90;100.00;77147.06;4948876;28;102408;-72
2023/12/17 10:09:01;;;;;;;;;24.75;22.75;;;;;-143.90;100.00;77128.47;4945406;28;102241;-72
2023/12/17 10:11:28;;;;;;;;;22.25;21.50;;;;;-143.90;100.00;77120.19;4948585;28;102625;-71
2023/12/17 10:13:55;;;;;;;;;29.25;23.50;;;;;-143.90;100.00;77120.19;4951178;28;104203;-71
2023/12/17 10:16:22;;;;;;;;;33.25;25.25;;;;;-143.90;100.00;77111.91;4949743;28;102658;-71
2023/12/17 10:18:49;;;;;;;;;25.25;22.75;;;;;-143.90;100.00;77113.97;4951264;28;102947;-72
2023/12/17 10:21:16;;;;;;;;;28.00;23.75;;;;;-143.90;100.00;77099.50;4948776;28;102261;-71
2023/12/17 10:23:46;;;;;;;;;22.25;18.75;;;;;-143.90;100.00;77082.94;4946234;28;104289;-71
2023/12/17 10:26:13;;;;;;;;;23.75;17.75;;;;;-143.90;100.00;77082.94;4947822;28;102140;-71
2023/12/17 10:28:46;;;;;;;;;23.50;21.50;;;;;-143.90;100.00;77091.22;4948369;28;101904;-72
2023/12/17 10:31:15;;;;;;;;;23.50;22.50;;;;;-143.90;100.00;77080.88;4946924;28;102387;-71
2023/12/17 10:33:51;;;;;;;;;24.50;20.00;;;;;-143.90;100.00;77066.41;4944707;28;105262;-72
2023/12/17 10:36:18;;;;;;;;;30.25;22.00;;;;;-143.90;100.00;77070.53;4950819;28;102567;-71
2023/12/17 10:38:47;;;;;;;;;11.50;6.00;;;;;-143.90;100.00;77068.47;4949832;28;102178;-71
2023/12/17 10:41:16;;;;;;;;;27.00;24.00;;;;;-143.90;100.00;77058.13;4946289;28;104249;-72
2023/12/17 10:43:43;;;;;;;;;24.50;21.50;;;;;-143.90;100.00;77056.06;4948736;28;104214;-72
2023/12/17 10:46:14;;;;;;;;;20.25;18.25;;;;;-143.90;100.00;77045.72;4946950;28;102112;-72